Terminal Aerodrome Forecast
Issued by NWS Louisville, KY

Home | Current Version | Previous Version | Text Only | Print | Product List | Glossary On
Versions: 1 2 3 4 5 6 7 8 9 10 11 12 13 14 15 16 17 18 19
000
FTUS43 KLMK 282300
TAFLEX
TAF
KLEX 282327Z 2900/2924 15006KT P6SM FEW250
     FM290900 17010KT P6SM BKN250 WS020/21048KT
     FM291400 19014G22KT P6SM VCSH OVC040
     FM291800 23014G23KT P6SM VCSH BKN025=

USA.gov is the U.S. government's official web portal to all federal, state and local government web resources and services.